Aérodrome :
LOGIN :

S'inscrire | Disclaimer

   EN    FR    IT 

 










Légende :    VFR   VFR Marginal   IFR   IFR Intensif   IFR Très Intensif
Visi : 
Plafond : 
>= 8 km
>= 3000ft
5 à 8 km
1000 à 3000 ft
1500m à 5 km
500 à 1000 ft
800 à 1500m
200 à 500 ft
< 800m
< 200 ft
Symboles :   Orages  Brouillard  Fortes neiges  Fortes précipitations  Vent > 20 kt
SIGMETs :   Divers  Orages  Givrage  Turbulence  Onde Orograph.  Cendres Volcan.







- Altitude de l'aérodrome : 294 ft
- Code IATA : NAP


LIRN - Naples Capodichino

DERNIER METAR :
  • 100520Z 27005KT CAVOK 04/03 Q1012 NOSIG

METARs EXPIRÉS :
  • 100450Z 08003KT CAVOK 07/04 Q1011 NOSIG
  • 100420Z VRB02KT CAVOK 07/04 Q1011 NOSIG
  • 100350Z 31004KT CAVOK 06/04 Q1011 NOSIG
  • 100320Z 01002KT CAVOK 07/04 Q1011 NOSIG
  • 100250Z 02005KT CAVOK 09/05 Q1011 NOSIG

TAF TAF LIRN
Valide du 10 à 06h jusqu'au 11 à 06h UTC


100500Z 1006/1106 VRB04KT CAVOK
BECMG 1008/1010 03010KT
Pas de NOTAMs connus pour ce terrain.
2 SIGMETs publiés pour la FIR Roma (LIRR) :
 
Turbulence forte
LIRR SIGMET 4 VALID 100530/100830 LIIB
LIRR ROMA FIR SEV TURB FCST WI N4104 E00807 - N4118 E00836 - N4105 E00957 - N3825 E01003 - N3901 E00813 - N4104 E00807 FL010/100 STNR NC=
Turbulence forte
LIRR SIGMET 3 VALID 100230/100530 LIIB
LIRR ROMA FIR SEV TURB FCST WI N4254 E01034 - N4104 E01222 - N3909 E01532 - N3830 E01718 - N3711 E01615 - N3847 E01149 - N4012 E01015 - N4212 E01001 - N4254 E01034 FL140/300 MOV SE NC=



MET'MAP, la Météo Aéronautique d'un coup d'oeil ! - Copyright ORBIFLY Décembre 2007 - Disclaimer

ORBIFLY MET'MAP TEAM :

Programmation & Développement : Alexandra Zaïnal
Conception & Développement : Baudouin d'Aumeries
Co-Programmation & Développement : Marc-Olivier Méhu
Soutien technique & logistique : Manuel Goepfert

Contact : metmap@orbifly.com




SOURCES & CREDITS :

   NOAA